sensor_id;sensor_type;location;lat;lon;timestamp;pressure;altitude;pressure_sealevel;temperature;humidity
41690;BME280;27372;42.658;23.256;2023-09-19T00:00:16;94183.22;;;15.05;92.29
41690;BME280;27372;42.658;23.256;2023-09-19T00:02:45;94186.78;;;15.26;91.38
41690;BME280;27372;42.658;23.256;2023-09-19T00:05:12;94192.97;;;14.99;92.62
41690;BME280;27372;42.658;23.256;2023-09-19T00:07:38;94193.81;;;14.72;94.29
41690;BME280;27372;42.658;23.256;2023-09-19T00:10:04;94208.97;;;14.82;95.15
41690;BME280;27372;42.658;23.256;2023-09-19T00:12:29;94196.00;;;14.81;94.43
41690;BME280;27372;42.658;23.256;2023-09-19T00:14:55;94192.69;;;14.96;93.87
41690;BME280;27372;42.658;23.256;2023-09-19T00:17:22;94190.13;;;15.06;93.60
41690;BME280;27372;42.658;23.256;2023-09-19T00:19:47;94185.66;;;15.12;92.92
41690;BME280;27372;42.658;23.256;2023-09-19T00:22:16;94188.84;;;15.14;93.11
41690;BME280;27372;42.658;23.256;2023-09-19T00:24:44;94185.53;;;14.96;94.06
41690;BME280;27372;42.658;23.256;2023-09-19T00:27:09;94173.84;;;14.87;94.47
41690;BME280;27372;42.658;23.256;2023-09-19T00:29:34;94174.38;;;14.56;97.09
41690;BME280;27372;42.658;23.256;2023-09-19T00:32:00;94171.72;;;14.84;96.23
41690;BME280;27372;42.658;23.256;2023-09-19T00:34:28;94175.50;;;14.98;95.17
41690;BME280;27372;42.658;23.256;2023-09-19T00:36:55;94173.91;;;14.97;95.60
41690;BME280;27372;42.658;23.256;2023-09-19T00:39:20;94162.19;;;15.26;93.59
41690;BME280;27372;42.658;23.256;2023-09-19T00:41:47;94172.44;;;15.17;92.70
41690;BME280;27372;42.658;23.256;2023-09-19T00:44:13;94172.97;;;14.49;97.02
41690;BME280;27372;42.658;23.256;2023-09-19T00:46:39;94177.97;;;14.45;98.18
41690;BME280;27372;42.658;23.256;2023-09-19T00:49:04;94179.63;;;14.02;100.00
41690;BME280;27372;42.658;23.256;2023-09-19T00:51:34;94178.03;;;14.23;100.00
41690;BME280;27372;42.658;23.256;2023-09-19T00:54:02;94170.09;;;14.23;100.00
41690;BME280;27372;42.658;23.256;2023-09-19T00:56:28;94173.22;;;14.20;100.00
41690;BME280;27372;42.658;23.256;2023-09-19T00:58:53;94174.75;;;14.16;100.00
41690;BME280;27372;42.658;23.256;2023-09-19T01:01:19;94160.22;;;14.40;100.00
41690;BME280;27372;42.658;23.256;2023-09-19T01:03:46;94170.28;;;14.43;99.71
41690;BME280;27372;42.658;23.256;2023-09-19T01:06:11;94178.59;;;14.57;99.09
41690;BME280;27372;42.658;23.256;2023-09-19T01:08:37;94166.81;;;14.38;99.96
41690;BME280;27372;42.658;23.256;2023-09-19T01:11:12;94173.06;;;14.59;99.23
41690;BME280;27372;42.658;23.256;2023-09-19T01:27:13;94177.22;;;14.50;99.20
41690;BME280;27372;42.658;23.256;2023-09-19T01:29:48;94175.22;;;14.62;98.28
41690;BME280;27372;42.658;23.256;2023-09-19T01:32:17;94178.47;;;14.69;97.87
41690;BME280;27372;42.658;23.256;2023-09-19T01:34:56;94173.88;;;14.59;97.64
41690;BME280;27372;42.658;23.256;2023-09-19T01:37:24;94170.47;;;14.64;97.99
41690;BME280;27372;42.658;23.256;2023-09-19T01:40:02;94173.91;;;14.65;97.92
41690;BME280;27372;42.658;23.256;2023-09-19T01:42:58;94179.88;;;14.82;97.42
41690;BME280;27372;42.658;23.256;2023-09-19T01:51:08;94166.59;;;14.44;98.35
41690;BME280;27372;42.658;23.256;2023-09-19T01:56:34;94175.22;;;14.07;100.00
41690;BME280;27372;42.658;23.256;2023-09-19T01:59:06;94173.56;;;14.01;100.00
41690;BME280;27372;42.658;23.256;2023-09-19T02:01:34;94170.47;;;14.09;100.00
41690;BME280;27372;42.658;23.256;2023-09-19T02:04:02;94171.72;;;14.02;100.00
41690;BME280;27372;42.658;23.256;2023-09-19T02:06:27;94181.44;;;13.74;100.00
41690;BME280;27372;42.658;23.256;2023-09-19T02:08:54;94186.41;;;13.70;100.00
41690;BME280;27372;42.658;23.256;2023-09-19T02:11:19;94184.06;;;13.74;100.00
41690;BME280;27372;42.658;23.256;2023-09-19T02:13:45;94171.38;;;13.93;100.00
41690;BME280;27372;42.658;23.256;2023-09-19T02:16:11;94173.13;;;14.09;100.00
41690;BME280;27372;42.658;23.256;2023-09-19T02:18:38;94173.25;;;14.25;100.00
41690;BME280;27372;42.658;23.256;2023-09-19T02:21:04;94177.66;;;14.41;100.00
41690;BME280;27372;42.658;23.256;2023-09-19T02:23:32;94159.41;;;14.40;99.62
41690;BME280;27372;42.658;23.256;2023-09-19T02:25:59;94164.75;;;14.18;100.00
41690;BME280;27372;42.658;23.256;2023-09-19T02:28:29;94161.09;;;14.51;99.55
41690;BME280;27372;42.658;23.256;2023-09-19T02:30:56;94162.22;;;14.28;100.00
41690;BME280;27372;42.658;23.256;2023-09-19T02:33:21;94169.22;;;14.72;98.23
41690;BME280;27372;42.658;23.256;2023-09-19T02:35:47;94162.22;;;14.88;96.61
41690;BME280;27372;42.658;23.256;2023-09-19T02:38:13;94159.63;;;14.98;95.89
41690;BME280;27372;42.658;23.256;2023-09-19T02:40:39;94157.78;;;14.66;97.17
41690;BME280;27372;42.658;23.256;2023-09-19T02:43:05;94145.59;;;14.33;99.15
41690;BME280;27372;42.658;23.256;2023-09-19T02:45:31;94146.72;;;14.09;100.00
41690;BME280;27372;42.658;23.256;2023-09-19T02:47:57;94150.41;;;14.36;99.88
41690;BME280;27372;42.658;23.256;2023-09-19T02:50:23;94145.59;;;14.05;100.00
41690;BME280;27372;42.658;23.256;2023-09-19T02:52:49;94140.44;;;13.88;100.00
41690;BME280;27372;42.658;23.256;2023-09-19T02:55:16;94141.03;;;14.23;100.00
41690;BME280;27372;42.658;23.256;2023-09-19T02:57:51;94132.69;;;14.36;100.00
41690;BME280;27372;42.658;23.256;2023-09-19T03:00:17;94129.44;;;14.56;98.67
41690;BME280;27372;42.658;23.256;2023-09-19T03:02:46;94130.31;;;14.07;100.00
41690;BME280;27372;42.658;23.256;2023-09-19T03:05:12;94134.91;;;13.90;100.00
41690;BME280;27372;42.658;23.256;2023-09-19T03:07:37;94127.72;;;13.85;100.00
41690;BME280;27372;42.658;23.256;2023-09-19T03:10:06;94117.59;;;14.04;100.00
41690;BME280;27372;42.658;23.256;2023-09-19T03:12:32;94123.22;;;14.40;100.00
41690;BME280;27372;42.658;23.256;2023-09-19T03:14:59;94122.06;;;14.58;99.34
41690;BME280;27372;42.658;23.256;2023-09-19T03:17:25;94121.81;;;14.60;98.84
41690;BME280;27372;42.658;23.256;2023-09-19T03:19:50;94125.41;;;14.49;99.05
41690;BME280;27372;42.658;23.256;2023-09-19T03:22:16;94118.91;;;14.02;100.00
41690;BME280;27372;42.658;23.256;2023-09-19T03:24:42;94122.25;;;14.19;100.00
41690;BME280;27372;42.658;23.256;2023-09-19T03:27:09;94127.63;;;13.53;100.00
41690;BME280;27372;42.658;23.256;2023-09-19T03:29:35;94134.94;;;13.95;100.00
41690;BME280;27372;42.658;23.256;2023-09-19T03:32:01;94124.06;;;14.13;100.00
41690;BME280;27372;42.658;23.256;2023-09-19T03:34:27;94131.22;;;14.18;100.00
41690;BME280;27372;42.658;23.256;2023-09-19T03:36:52;94131.44;;;14.11;100.00
41690;BME280;27372;42.658;23.256;2023-09-19T03:39:17;94129.75;;;14.05;100.00
41690;BME280;27372;42.658;23.256;2023-09-19T03:41:43;94135.84;;;14.06;100.00
41690;BME280;27372;42.658;23.256;2023-09-19T03:44:10;94138.00;;;14.09;100.00
41690;BME280;27372;42.658;23.256;2023-09-19T03:46:35;94150.78;;;13.95;100.00
41690;BME280;27372;42.658;23.256;2023-09-19T03:49:01;94142.34;;;13.93;100.00
41690;BME280;27372;42.658;23.256;2023-09-19T03:51:26;94145.28;;;13.96;100.00
41690;BME280;27372;42.658;23.256;2023-09-19T03:53:52;94150.28;;;13.98;100.00
41690;BME280;27372;42.658;23.256;2023-09-19T03:56:17;94150.75;;;13.90;100.00
41690;BME280;27372;42.658;23.256;2023-09-19T03:58:43;94142.63;;;13.74;100.00
41690;BME280;27372;42.658;23.256;2023-09-19T04:01:08;94147.47;;;14.05;100.00
41690;BME280;27372;42.658;23.256;2023-09-19T04:03:34;94140.97;;;14.18;100.00
41690;BME280;27372;42.658;23.256;2023-09-19T04:06:15;94143.91;;;14.21;100.00
41690;BME280;27372;42.658;23.256;2023-09-19T04:08:42;94156.38;;;14.26;100.00
41690;BME280;27372;42.658;23.256;2023-09-19T04:11:08;94156.38;;;14.26;100.00
41690;BME280;27372;42.658;23.256;2023-09-19T04:13:33;94160.81;;;14.48;100.00
41690;BME280;27372;42.658;23.256;2023-09-19T04:15:58;94164.09;;;14.60;99.32
41690;BME280;27372;42.658;23.256;2023-09-19T04:18:25;94157.78;;;14.66;98.99
41690;BME280;27372;42.658;23.256;2023-09-19T04:20:50;94163.44;;;13.93;100.00
41690;BME280;27372;42.658;23.256;2023-09-19T04:23:16;94155.03;;;13.74;100.00
41690;BME280;27372;42.658;23.256;2023-09-19T04:25:42;94145.94;;;13.87;100.00
41690;BME280;27372;42.658;23.256;2023-09-19T04:28:08;94144.97;;;13.93;100.00
41690;BME280;27372;42.658;23.256;2023-09-19T04:30:39;94142.97;;;14.33;100.00
41690;BME280;27372;42.658;23.256;2023-09-19T04:33:07;94143.44;;;14.57;100.00
41690;BME280;27372;42.658;23.256;2023-09-19T04:35:33;94141.41;;;14.64;100.00
41690;BME280;27372;42.658;23.256;2023-09-19T04:38:00;94145.63;;;14.65;99.99
41690;BME280;27372;42.658;23.256;2023-09-19T04:40:25;94131.34;;;14.66;99.64
41690;BME280;27372;42.658;23.256;2023-09-19T04:42:58;94144.53;;;14.61;99.77
41690;BME280;27372;42.658;23.256;2023-09-19T04:45:24;94142.72;;;14.94;99.14
41690;BME280;27372;42.658;23.256;2023-09-19T04:47:55;94144.31;;;14.95;99.87
41690;BME280;27372;42.658;23.256;2023-09-19T04:50:21;94133.41;;;14.91;99.64
41690;BME280;27372;42.658;23.256;2023-09-19T04:52:51;94138.59;;;15.19;98.40
41690;BME280;27372;42.658;23.256;2023-09-19T04:55:19;94136.84;;;15.30;98.41
41690;BME280;27372;42.658;23.256;2023-09-19T04:57:46;94140.88;;;15.48;98.46
41690;BME280;27372;42.658;23.256;2023-09-19T05:00:22;94131.22;;;15.79;95.40
41690;BME280;27372;42.658;23.256;2023-09-19T05:02:50;94145.59;;;16.04;93.63
41690;BME280;27372;42.658;23.256;2023-09-19T05:05:17;94134.97;;;15.94;93.35
41690;BME280;27372;42.658;23.256;2023-09-19T05:07:44;94133.44;;;16.13;92.53
41690;BME280;27372;42.658;23.256;2023-09-19T05:10:10;94138.50;;;16.30;92.86
41690;BME280;27372;42.658;23.256;2023-09-19T05:12:37;94139.34;;;16.62;90.79
41690;BME280;27372;42.658;23.256;2023-09-19T05:15:06;94143.84;;;16.77;88.72
41690;BME280;27372;42.658;23.256;2023-09-19T05:17:35;94146.25;;;16.84;87.60
41690;BME280;27372;42.658;23.256;2023-09-19T05:20:02;94145.72;;;16.71;88.48
41690;BME280;27372;42.658;23.256;2023-09-19T05:22:43;94135.63;;;16.94;86.12
41690;BME280;27372;42.658;23.256;2023-09-19T05:25:11;94134.03;;;16.98;85.98
41690;BME280;27372;42.658;23.256;2023-09-19T05:27:42;94132.94;;;17.15;85.87
41690;BME280;27372;42.658;23.256;2023-09-19T05:30:08;94133.19;;;17.23;85.26
41690;BME280;27372;42.658;23.256;2023-09-19T05:32:34;94137.50;;;16.94;86.33
41690;BME280;27372;42.658;23.256;2023-09-19T05:34:59;94135.63;;;16.99;86.17
41690;BME280;27372;42.658;23.256;2023-09-19T05:37:25;94138.53;;;17.03;84.83
41690;BME280;27372;42.658;23.256;2023-09-19T05:39:51;94141.66;;;17.31;84.00
41690;BME280;27372;42.658;23.256;2023-09-19T05:42:18;94131.03;;;17.41;83.81
41690;BME280;27372;42.658;23.256;2023-09-19T05:44:43;94126.84;;;17.14;85.01
41690;BME280;27372;42.658;23.256;2023-09-19T05:47:09;94115.38;;;18.10;100.00
41690;BME280;27372;42.658;23.256;2023-09-19T05:49:37;94124.25;;;19.04;92.97
41690;BME280;27372;42.658;23.256;2023-09-19T05:52:07;94123.69;;;19.80;92.38
41690;BME280;27372;42.658;23.256;2023-09-19T05:54:32;94126.22;;;20.53;86.09
41690;BME280;27372;42.658;23.256;2023-09-19T05:57:00;94129.22;;;20.85;79.51
41690;BME280;27372;42.658;23.256;2023-09-19T05:59:25;94130.78;;;21.33;78.91
41690;BME280;27372;42.658;23.256;2023-09-19T06:01:51;94127.06;;;21.76;76.16
41690;BME280;27372;42.658;23.256;2023-09-19T06:04:17;94132.50;;;21.56;71.40
41690;BME280;27372;42.658;23.256;2023-09-19T06:06:44;94129.13;;;21.93;71.15
41690;BME280;27372;42.658;23.256;2023-09-19T06:09:10;94131.16;;;22.24;69.08
41690;BME280;27372;42.658;23.256;2023-09-19T06:11:35;94126.84;;;22.51;61.58
41690;BME280;27372;42.658;23.256;2023-09-19T06:14:03;94123.09;;;21.45;62.32
41690;BME280;27372;42.658;23.256;2023-09-19T06:16:29;94119.41;;;20.80;64.55
41690;BME280;27372;42.658;23.256;2023-09-19T06:18:55;94126.78;;;20.50;66.82
41690;BME280;27372;42.658;23.256;2023-09-19T06:21:24;94120.72;;;20.63;65.65
41690;BME280;27372;42.658;23.256;2023-09-19T06:23:49;94114.09;;;20.42;66.11
41690;BME280;27372;42.658;23.256;2023-09-19T06:26:15;94109.59;;;20.23;67.17
41690;BME280;27372;42.658;23.256;2023-09-19T06:28:40;94103.31;;;20.14;68.58
41690;BME280;27372;42.658;23.256;2023-09-19T06:31:07;94103.50;;;19.98;68.57
41690;BME280;27372;42.658;23.256;2023-09-19T06:33:35;94104.72;;;19.63;70.08
41690;BME280;27372;42.658;23.256;2023-09-19T06:36:07;94109.97;;;19.49;70.94
41690;BME280;27372;42.658;23.256;2023-09-19T06:38:33;94108.38;;;19.48;71.40
41690;BME280;27372;42.658;23.256;2023-09-19T06:41:02;94107.44;;;18.74;74.04
41690;BME280;27372;42.658;23.256;2023-09-19T06:43:32;94121.28;;;19.35;72.87
41690;BME280;27372;42.658;23.256;2023-09-19T06:45:59;94119.69;;;18.75;75.15
41690;BME280;27372;42.658;23.256;2023-09-19T06:48:25;94107.69;;;19.37;73.10
41690;BME280;27372;42.658;23.256;2023-09-19T06:50:53;94116.88;;;19.50;70.82
41690;BME280;27372;42.658;23.256;2023-09-19T06:53:20;94123.88;;;19.16;71.29
41690;BME280;27372;42.658;23.256;2023-09-19T06:55:45;94124.22;;;19.58;71.01
41690;BME280;27372;42.658;23.256;2023-09-19T06:58:12;94129.94;;;19.70;69.87
41690;BME280;27372;42.658;23.256;2023-09-19T07:00:38;94122.75;;;19.71;70.24
41690;BME280;27372;42.658;23.256;2023-09-19T07:03:06;94122.81;;;19.66;71.10
41690;BME280;27372;42.658;23.256;2023-09-19T07:05:34;94128.53;;;19.78;69.68
41690;BME280;27372;42.658;23.256;2023-09-19T07:08:03;94123.94;;;19.84;69.41
41690;BME280;27372;42.658;23.256;2023-09-19T07:10:29;94118.34;;;20.05;68.83
41690;BME280;27372;42.658;23.256;2023-09-19T07:12:59;94123.88;;;19.89;68.74
41690;BME280;27372;42.658;23.256;2023-09-19T07:15:25;94125.09;;;19.53;69.70
41690;BME280;27372;42.658;23.256;2023-09-19T07:17:52;94126.88;;;19.82;69.46
41690;BME280;27372;42.658;23.256;2023-09-19T07:20:18;94129.66;;;19.96;69.78
41690;BME280;27372;42.658;23.256;2023-09-19T07:22:44;94130.59;;;20.06;70.04
41690;BME280;27372;42.658;23.256;2023-09-19T07:25:10;94131.78;;;20.19;68.93
41690;BME280;27372;42.658;23.256;2023-09-19T07:27:35;94125.34;;;20.39;66.90
41690;BME280;27372;42.658;23.256;2023-09-19T07:30:01;94133.94;;;20.74;66.50
41690;BME280;27372;42.658;23.256;2023-09-19T07:32:26;94129.75;;;20.48;67.56
41690;BME280;27372;42.658;23.256;2023-09-19T07:34:51;94135.19;;;20.57;67.75
41690;BME280;27372;42.658;23.256;2023-09-19T07:37:17;94129.34;;;20.55;67.29
41690;BME280;27372;42.658;23.256;2023-09-19T07:39:43;94132.00;;;20.22;68.46
41690;BME280;27372;42.658;23.256;2023-09-19T07:42:10;94133.13;;;20.35;67.94
41690;BME280;27372;42.658;23.256;2023-09-19T07:44:36;94129.75;;;20.48;67.98
41690;BME280;27372;42.658;23.256;2023-09-19T07:47:02;94131.56;;;20.53;66.46
41690;BME280;27372;42.658;23.256;2023-09-19T07:49:28;94126.69;;;20.74;65.78
41690;BME280;27372;42.658;23.256;2023-09-19T07:51:54;94120.22;;;20.81;65.09
41690;BME280;27372;42.658;23.256;2023-09-19T07:54:20;94133.28;;;20.96;65.28
41690;BME280;27372;42.658;23.256;2023-09-19T07:56:46;94127.97;;;20.96;64.86
41690;BME280;27372;42.658;23.256;2023-09-19T07:59:11;94150.69;;;20.93;65.70
41690;BME280;27372;42.658;23.256;2023-09-19T08:01:37;94147.72;;;21.42;63.62
41690;BME280;27372;42.658;23.256;2023-09-19T08:04:06;94136.88;;;21.66;62.55
41690;BME280;27372;42.658;23.256;2023-09-19T08:06:31;94125.50;;;21.61;61.71
41690;BME280;27372;42.658;23.256;2023-09-19T08:08:56;94113.50;;;20.83;64.41
41690;BME280;27372;42.658;23.256;2023-09-19T08:11:22;94117.75;;;21.31;63.42
41690;BME280;27372;42.658;23.256;2023-09-19T08:13:49;94122.09;;;21.55;62.40
41690;BME280;27372;42.658;23.256;2023-09-19T08:16:16;94118.28;;;21.75;61.55
41690;BME280;27372;42.658;23.256;2023-09-19T08:18:46;94117.47;;;21.61;62.63
41690;BME280;27372;42.658;23.256;2023-09-19T08:21:12;94113.81;;;21.84;61.07
41690;BME280;27372;42.658;23.256;2023-09-19T08:23:38;94104.00;;;21.94;60.58
41690;BME280;27372;42.658;23.256;2023-09-19T08:26:07;94104.91;;;22.26;59.25
41690;BME280;27372;42.658;23.256;2023-09-19T08:28:36;94108.28;;;21.67;60.68
41690;BME280;27372;42.658;23.256;2023-09-19T08:31:02;94117.78;;;22.24;60.02
41690;BME280;27372;42.658;23.256;2023-09-19T08:33:29;94130.97;;;22.79;59.03
41690;BME280;27372;42.658;23.256;2023-09-19T08:35:55;94116.97;;;23.05;56.66
41690;BME280;27372;42.658;23.256;2023-09-19T08:38:21;94115.66;;;23.57;55.47
41690;BME280;27372;42.658;23.256;2023-09-19T08:40:46;94119.13;;;23.49;54.94
41690;BME280;27372;42.658;23.256;2023-09-19T08:43:12;94118.66;;;23.55;54.53
41690;BME280;27372;42.658;23.256;2023-09-19T08:45:38;94116.34;;;22.77;57.39
41690;BME280;27372;42.658;23.256;2023-09-19T08:48:26;94106.19;;;22.88;56.45
41690;BME280;27372;42.658;23.256;2023-09-19T08:55:56;94092.81;;;22.96;57.26
41690;BME280;27372;42.658;23.256;2023-09-19T08:58:26;94096.66;;;23.36;55.88
41690;BME280;27372;42.658;23.256;2023-09-19T09:00:56;94103.44;;;22.79;57.48
41690;BME280;27372;42.658;23.256;2023-09-19T09:03:22;94092.41;;;23.03;57.23
41690;BME280;27372;42.658;23.256;2023-09-19T09:05:50;94095.28;;;23.38;56.26
41690;BME280;27372;42.658;23.256;2023-09-19T09:08:16;94103.78;;;23.81;55.01
41690;BME280;27372;42.658;23.256;2023-09-19T09:10:44;94093.13;;;24.16;53.86
41690;BME280;27372;42.658;23.256;2023-09-19T09:13:09;94096.28;;;24.18;53.54
41690;BME280;27372;42.658;23.256;2023-09-19T09:15:38;94088.38;;;24.22;52.79
41690;BME280;27372;42.658;23.256;2023-09-19T09:18:04;94089.16;;;24.22;53.33
41690;BME280;27372;42.658;23.256;2023-09-19T09:20:30;94083.34;;;24.64;51.60
41690;BME280;27372;42.658;23.256;2023-09-19T09:22:56;94075.59;;;24.71;51.48
41690;BME280;27372;42.658;23.256;2023-09-19T09:25:54;94053.94;;;24.85;50.25
41690;BME280;27372;42.658;23.256;2023-09-19T09:28:23;94073.25;;;24.17;53.11
41690;BME280;27372;42.658;23.256;2023-09-19T09:30:49;94066.44;;;24.55;51.71
41690;BME280;27372;42.658;23.256;2023-09-19T09:33:15;94060.94;;;24.51;51.72
41690;BME280;27372;42.658;23.256;2023-09-19T09:36:01;94071.97;;;24.23;52.67
41690;BME280;27372;42.658;23.256;2023-09-19T09:38:29;94064.34;;;24.95;51.13
41690;BME280;27372;42.658;23.256;2023-09-19T09:40:59;94055.22;;;25.95;48.80
41690;BME280;27372;42.658;23.256;2023-09-19T09:43:34;94060.09;;;26.44;46.59
41690;BME280;27372;42.658;23.256;2023-09-19T09:46:08;94045.38;;;26.42;46.93
41690;BME280;27372;42.658;23.256;2023-09-19T09:51:43;94044.72;;;26.45;46.69
41690;BME280;27372;42.658;23.256;2023-09-19T09:54:16;94049.03;;;25.95;47.84
41690;BME280;27372;42.658;23.256;2023-09-19T09:56:56;94051.53;;;25.79;47.91
41690;BME280;27372;42.658;23.256;2023-09-19T09:59:47;94046.53;;;25.68;48.67
41690;BME280;27372;42.658;23.256;2023-09-19T10:02:20;94047.78;;;25.71;49.02
41690;BME280;27372;42.658;23.256;2023-09-19T10:04:51;94039.75;;;25.62;49.64
41690;BME280;27372;42.658;23.256;2023-09-19T10:07:30;94054.88;;;25.37;49.39
41690;BME280;27372;42.658;23.256;2023-09-19T10:10:03;94041.63;;;25.32;49.72
41690;BME280;27372;42.658;23.256;2023-09-19T10:12:43;94038.94;;;25.32;49.76
41690;BME280;27372;42.658;23.256;2023-09-19T10:15:11;94036.56;;;24.91;50.69
41690;BME280;27372;42.658;23.256;2023-09-19T10:17:42;94028.94;;;24.93;50.36
41690;BME280;27372;42.658;23.256;2023-09-19T10:20:12;94044.66;;;25.21;50.21
41690;BME280;27372;42.658;23.256;2023-09-19T10:22:48;94030.78;;;24.72;51.12
41690;BME280;27372;42.658;23.256;2023-09-19T10:25:25;94035.75;;;24.91;51.12
41690;BME280;27372;42.658;23.256;2023-09-19T10:27:53;94030.09;;;24.92;50.93
41690;BME280;27372;42.658;23.256;2023-09-19T10:30:23;94031.69;;;24.85;50.56
41690;BME280;27372;42.658;23.256;2023-09-19T10:32:57;94034.97;;;24.90;51.03
41690;BME280;27372;42.658;23.256;2023-09-19T10:35:25;94033.34;;;24.98;51.09
41690;BME280;27372;42.658;23.256;2023-09-19T10:37:51;94036.00;;;25.16;51.03
41690;BME280;27372;42.658;23.256;2023-09-19T10:40:21;94032.16;;;25.25;49.85
41690;BME280;27372;42.658;23.256;2023-09-19T10:42:52;94031.25;;;25.21;49.62
41690;BME280;27372;42.658;23.256;2023-09-19T10:45:19;94026.28;;;25.41;49.28
41690;BME280;27372;42.658;23.256;2023-09-19T10:47:45;94015.25;;;25.25;49.99
41690;BME280;27372;42.658;23.256;2023-09-19T10:50:19;94018.78;;;25.17;50.88
41690;BME280;27372;42.658;23.256;2023-09-19T10:52:47;94013.25;;;25.13;51.02
41690;BME280;27372;42.658;23.256;2023-09-19T10:55:19;94011.50;;;25.08;51.00
41690;BME280;27372;42.658;23.256;2023-09-19T10:57:47;94011.63;;;25.21;51.18
41690;BME280;27372;42.658;23.256;2023-09-19T11:00:13;94012.97;;;25.36;50.25
41690;BME280;27372;42.658;23.256;2023-09-19T11:03:20;94018.78;;;25.17;50.83
41690;BME280;27372;42.658;23.256;2023-09-19T11:06:15;94013.09;;;25.48;48.93
41690;BME280;27372;42.658;23.256;2023-09-19T11:09:02;94009.66;;;25.90;48.52
41690;BME280;27372;42.658;23.256;2023-09-19T11:30:52;93985.75;;;26.52;46.27
41690;BME280;27372;42.658;23.256;2023-09-19T11:36:14;93978.66;;;26.81;45.93
41690;BME280;27372;42.658;23.256;2023-09-19T11:41:38;93971.19;;;27.24;45.06
41690;BME280;27372;42.658;23.256;2023-09-19T11:49:29;93959.38;;;26.79;46.22
41690;BME280;27372;42.658;23.256;2023-09-19T11:52:02;93949.50;;;26.49;46.20
41690;BME280;27372;42.658;23.256;2023-09-19T11:54:31;93960.59;;;26.81;46.06
41690;BME280;27372;42.658;23.256;2023-09-19T11:56:58;93954.91;;;27.20;45.49
41690;BME280;27372;42.658;23.256;2023-09-19T11:59:26;93964.66;;;27.37;44.50
41690;BME280;27372;42.658;23.256;2023-09-19T12:02:01;93951.47;;;26.74;45.43
41690;BME280;27372;42.658;23.256;2023-09-19T12:04:39;93945.81;;;27.12;46.12
41690;BME280;27372;42.658;23.256;2023-09-19T12:07:08;93939.84;;;27.32;44.71
41690;BME280;27372;42.658;23.256;2023-09-19T12:09:41;93934.47;;;27.07;44.86
41690;BME280;27372;42.658;23.256;2023-09-19T12:12:09;93931.16;;;26.76;46.21
41690;BME280;27372;42.658;23.256;2023-09-19T12:14:38;93931.53;;;27.37;45.09
41690;BME280;27372;42.658;23.256;2023-09-19T12:17:04;93925.41;;;29.10;41.66
41690;BME280;27372;42.658;23.256;2023-09-19T12:19:30;93921.19;;;29.45;40.88
41690;BME280;27372;42.658;23.256;2023-09-19T12:21:57;93926.38;;;30.29;39.06
41690;BME280;27372;42.658;23.256;2023-09-19T12:24:24;93914.75;;;30.09;38.90
41690;BME280;27372;42.658;23.256;2023-09-19T12:26:59;93910.94;;;30.52;38.20
41690;BME280;27372;42.658;23.256;2023-09-19T12:29:27;93897.66;;;30.67;37.89
41690;BME280;27372;42.658;23.256;2023-09-19T12:31:54;93900.25;;;30.83;37.89
41690;BME280;27372;42.658;23.256;2023-09-19T12:34:31;93903.28;;;31.05;37.08
41690;BME280;27372;42.658;23.256;2023-09-19T12:37:07;93896.94;;;31.20;36.58
41690;BME280;27372;42.658;23.256;2023-09-19T12:39:43;93901.91;;;30.91;37.07
41690;BME280;27372;42.658;23.256;2023-09-19T12:42:14;93900.38;;;32.35;35.27
41690;BME280;27372;42.658;23.256;2023-09-19T12:44:49;93901.44;;;32.27;34.81
41690;BME280;27372;42.658;23.256;2023-09-19T12:47:17;93898.34;;;32.25;35.17
41690;BME280;27372;42.658;23.256;2023-09-19T12:50:15;93900.13;;;32.14;34.08
41690;BME280;27372;42.658;23.256;2023-09-19T12:52:49;93907.03;;;32.79;33.34
41690;BME280;27372;42.658;23.256;2023-09-19T12:55:29;93906.00;;;33.51;32.11
41690;BME280;27372;42.658;23.256;2023-09-19T12:58:13;93896.44;;;33.19;33.06
41690;BME280;27372;42.658;23.256;2023-09-19T13:00:44;93890.78;;;32.90;33.46
41690;BME280;27372;42.658;23.256;2023-09-19T13:03:27;93880.97;;;32.78;33.71
41690;BME280;27372;42.658;23.256;2023-09-19T13:06:01;93894.56;;;33.30;33.00
41690;BME280;27372;42.658;23.256;2023-09-19T13:08:32;93890.41;;;34.36;31.35
41690;BME280;27372;42.658;23.256;2023-09-19T13:11:10;93884.91;;;34.21;31.80
41690;BME280;27372;42.658;23.256;2023-09-19T13:13:44;93892.81;;;34.84;30.81
41690;BME280;27372;42.658;23.256;2023-09-19T13:16:14;93881.88;;;34.70;30.63
41690;BME280;27372;42.658;23.256;2023-09-19T13:18:55;93873.78;;;33.64;31.88
41690;BME280;27372;42.658;23.256;2023-09-19T13:24:23;93864.88;;;33.04;32.48
41690;BME280;27372;42.658;23.256;2023-09-19T13:26:51;93858.34;;;33.19;33.07
41690;BME280;27372;42.658;23.256;2023-09-19T13:29:16;93849.59;;;32.43;34.07
41690;BME280;27372;42.658;23.256;2023-09-19T13:31:50;93848.41;;;32.86;34.12
41690;BME280;27372;42.658;23.256;2023-09-19T13:34:18;93860.53;;;32.50;34.61
41690;BME280;27372;42.658;23.256;2023-09-19T13:36:45;93860.84;;;32.08;34.82
41690;BME280;27372;42.658;23.256;2023-09-19T13:39:11;93861.06;;;31.91;34.93
41690;BME280;27372;42.658;23.256;2023-09-19T13:41:40;93857.63;;;31.95;35.01
41690;BME280;27372;42.658;23.256;2023-09-19T13:44:07;93857.97;;;31.28;36.31
41690;BME280;27372;42.658;23.256;2023-09-19T13:46:33;93854.19;;;31.37;36.33
41690;BME280;27372;42.658;23.256;2023-09-19T13:49:01;93850.47;;;31.18;36.66
41690;BME280;27372;42.658;23.256;2023-09-19T13:51:28;93848.66;;;31.90;35.84
41690;BME280;27372;42.658;23.256;2023-09-19T13:53:55;93857.06;;;31.21;36.32
41690;BME280;27372;42.658;23.256;2023-09-19T13:56:20;93843.44;;;30.90;37.31
41690;BME280;27372;42.658;23.256;2023-09-19T13:58:46;93838.41;;;31.77;35.53